createdAt,value
2017-08-29T00:00:11.881Z,0
2017-08-29T00:01:13.281Z,0
2017-08-29T00:02:14.671Z,0
2017-08-29T00:03:16.067Z,0
2017-08-29T00:04:17.461Z,0
2017-08-29T00:05:18.853Z,0
2017-08-29T00:06:20.249Z,0
2017-08-29T00:07:21.642Z,0
2017-08-29T00:08:23.036Z,0
2017-08-29T00:09:24.431Z,0
2017-08-29T00:10:25.828Z,0
2017-08-29T00:11:27.222Z,0
2017-08-29T00:12:28.614Z,0
2017-08-29T00:13:30.011Z,0
2017-08-29T00:14:31.430Z,0
2017-08-29T00:15:32.827Z,0
2017-08-29T00:16:34.219Z,0
2017-08-29T00:17:35.615Z,0
2017-08-29T00:18:37.007Z,0
2017-08-29T00:19:38.403Z,0
2017-08-29T00:20:39.800Z,0
2017-08-29T00:21:41.194Z,0
2017-08-29T00:22:42.590Z,0
2017-08-29T00:23:43.985Z,0
2017-08-29T00:24:45.379Z,0
2017-08-29T00:25:46.774Z,0
2017-08-29T00:26:48.166Z,0
2017-08-29T00:27:49.558Z,0
2017-08-29T00:28:50.953Z,0
2017-08-29T00:29:52.347Z,0
2017-08-29T00:30:53.742Z,0
2017-08-29T00:31:55.133Z,0
2017-08-29T00:32:56.526Z,0
2017-08-29T00:33:57.918Z,0
2017-08-29T00:34:59.314Z,0
2017-08-29T00:36:00.709Z,0
2017-08-29T00:37:02.103Z,0
2017-08-29T00:38:03.498Z,0
2017-08-29T00:39:04.895Z,0
2017-08-29T00:40:06.287Z,0
2017-08-29T00:41:07.680Z,0
2017-08-29T00:42:09.080Z,0
2017-08-29T00:43:10.473Z,0
2017-08-29T00:44:11.868Z,0
2017-08-29T00:45:13.263Z,0
2017-08-29T00:46:14.659Z,0
2017-08-29T00:47:16.052Z,0
2017-08-29T00:48:17.444Z,0
2017-08-29T00:49:18.841Z,0
2017-08-29T00:50:20.235Z,0
2017-08-29T00:51:21.628Z,0
2017-08-29T00:52:23.024Z,0
2017-08-29T00:53:24.420Z,0
2017-08-29T00:54:25.812Z,0
2017-08-29T00:55:27.206Z,0
2017-08-29T00:56:28.599Z,0
2017-08-29T00:57:29.993Z,0
2017-08-29T00:58:31.386Z,0
2017-08-29T00:59:32.833Z,0
2017-08-29T01:00:34.229Z,0
2017-08-29T01:01:35.619Z,0
2017-08-29T01:02:37.016Z,0
2017-08-29T01:03:38.408Z,0
2017-08-29T01:04:39.805Z,0
2017-08-29T01:05:41.198Z,0
2017-08-29T01:06:42.595Z,0
2017-08-29T01:07:43.994Z,0
2017-08-29T01:08:45.383Z,0
2017-08-29T01:09:46.776Z,0
2017-08-29T01:10:48.172Z,0
2017-08-29T01:11:49.567Z,0
2017-08-29T01:12:50.962Z,0
2017-08-29T01:13:52.355Z,0
2017-08-29T01:14:53.753Z,0
2017-08-29T01:15:55.145Z,0
2017-08-29T01:16:56.538Z,0
2017-08-29T01:17:57.932Z,0
2017-08-29T01:18:59.326Z,0
2017-08-29T01:20:00.719Z,0
2017-08-29T01:21:02.116Z,0
2017-08-29T01:22:03.513Z,0
2017-08-29T01:23:04.909Z,0
2017-08-29T01:24:06.332Z,0
2017-08-29T01:25:07.694Z,0
2017-08-29T01:26:09.090Z,0
2017-08-29T01:27:10.483Z,0
2017-08-29T01:28:11.874Z,0
2017-08-29T01:29:13.273Z,0
2017-08-29T01:30:14.663Z,0
2017-08-29T01:31:16.058Z,0
2017-08-29T01:32:17.450Z,0
2017-08-29T01:33:18.843Z,0
2017-08-29T01:34:20.236Z,0
2017-08-29T01:35:21.634Z,0
2017-08-29T01:36:23.030Z,0
2017-08-29T01:37:24.421Z,0
2017-08-29T01:38:25.811Z,0
2017-08-29T01:39:27.205Z,0
2017-08-29T01:40:28.602Z,0
2017-08-29T01:41:30.003Z,0
2017-08-29T01:42:31.394Z,0
2017-08-29T01:43:32.795Z,0
2017-08-29T01:44:34.193Z,0
2017-08-29T01:45:35.587Z,0
2017-08-29T01:46:36.980Z,0
2017-08-29T01:47:38.378Z,0
2017-08-29T01:48:39.771Z,0
2017-08-29T01:49:41.166Z,0
2017-08-29T01:50:42.568Z,0
2017-08-29T01:51:43.958Z,0
2017-08-29T01:52:45.349Z,0
2017-08-29T01:53:46.739Z,0
2017-08-29T01:54:48.134Z,0
2017-08-29T01:55:49.532Z,0
2017-08-29T01:56:50.925Z,0
2017-08-29T01:57:52.324Z,0
2017-08-29T01:58:53.717Z,0
2017-08-29T01:59:55.107Z,0
2017-08-29T02:00:56.531Z,0
2017-08-29T02:01:57.898Z,0
2017-08-29T02:02:59.293Z,0
2017-08-29T02:04:00.689Z,0
2017-08-29T02:05:02.085Z,0
2017-08-29T02:06:03.475Z,0
2017-08-29T02:07:04.869Z,0
2017-08-29T02:08:06.264Z,0
2017-08-29T02:09:07.669Z,0
2017-08-29T02:10:09.061Z,0
2017-08-29T02:11:10.449Z,0
2017-08-29T02:12:11.845Z,0
2017-08-29T02:13:13.238Z,0
2017-08-29T02:14:14.632Z,0
2017-08-29T02:15:16.030Z,0
2017-08-29T02:16:17.418Z,0
2017-08-29T02:17:18.813Z,0
2017-08-29T02:18:20.209Z,0
2017-08-29T02:19:21.603Z,0
2017-08-29T02:20:22.994Z,0
2017-08-29T02:21:24.350Z,0
2017-08-29T02:22:25.745Z,0
2017-08-29T02:23:27.155Z,0
2017-08-29T02:24:28.534Z,0
2017-08-29T02:25:29.930Z,0
2017-08-29T02:26:31.327Z,0
2017-08-29T02:27:32.719Z,0
2017-08-29T02:28:34.113Z,0
2017-08-29T02:29:35.509Z,0
2017-08-29T02:30:36.906Z,0
2017-08-29T02:31:38.300Z,0
2017-08-29T02:32:39.695Z,0
2017-08-29T02:33:41.092Z,0
2017-08-29T02:34:42.483Z,0
2017-08-29T02:35:43.876Z,0
2017-08-29T02:36:45.267Z,0
2017-08-29T02:37:46.659Z,0
2017-08-29T02:38:48.058Z,0
2017-08-29T02:39:49.451Z,0
2017-08-29T02:40:50.848Z,0
2017-08-29T02:41:52.239Z,0
2017-08-29T02:42:53.633Z,0
2017-08-29T02:43:55.026Z,0
2017-08-29T02:44:56.418Z,0
2017-08-29T02:45:57.817Z,0
2017-08-29T02:46:59.212Z,0
2017-08-29T02:48:00.603Z,0
2017-08-29T02:49:01.997Z,0
2017-08-29T02:50:03.391Z,0
2017-08-29T02:51:04.785Z,0
2017-08-29T02:52:06.176Z,0
2017-08-29T02:53:07.572Z,0
2017-08-29T02:54:08.964Z,0
2017-08-29T02:55:10.360Z,0
2017-08-29T02:56:11.754Z,0
2017-08-29T02:57:13.147Z,0
2017-08-29T02:58:14.538Z,0
2017-08-29T02:59:15.932Z,0
2017-08-29T03:00:17.326Z,0
2017-08-29T03:01:18.723Z,0
2017-08-29T03:02:20.118Z,0
2017-08-29T03:03:21.510Z,0
2017-08-29T03:04:22.902Z,0
2017-08-29T03:05:24.297Z,0
2017-08-29T03:06:25.691Z,0
2017-08-29T03:07:27.089Z,0
2017-08-29T03:08:28.482Z,0
2017-08-29T03:09:29.879Z,0
2017-08-29T03:10:31.271Z,0
2017-08-29T03:11:32.665Z,0
2017-08-29T03:12:34.058Z,0
2017-08-29T03:13:35.456Z,0
2017-08-29T03:14:36.845Z,0
2017-08-29T03:15:38.240Z,0
2017-08-29T03:16:39.634Z,0
2017-08-29T03:17:41.027Z,0
2017-08-29T03:18:42.418Z,0
2017-08-29T03:19:43.811Z,0
2017-08-29T03:20:45.209Z,0
2017-08-29T03:21:46.601Z,0
2017-08-29T03:22:47.995Z,0
2017-08-29T03:23:49.391Z,0
2017-08-29T03:24:50.790Z,0
2017-08-29T03:25:52.181Z,0
2017-08-29T03:26:53.576Z,0
2017-08-29T03:27:54.970Z,0
2017-08-29T03:28:56.363Z,0
2017-08-29T03:29:57.757Z,0
2017-08-29T03:30:59.155Z,0
2017-08-29T03:32:00.550Z,0
2017-08-29T03:33:01.940Z,0
2017-08-29T03:34:03.334Z,0
2017-08-29T03:35:04.727Z,0
2017-08-29T03:36:06.122Z,0
2017-08-29T03:37:07.516Z,0
2017-08-29T03:38:08.915Z,0
2017-08-29T03:39:10.307Z,0
2017-08-29T03:40:11.701Z,0
2017-08-29T03:41:13.092Z,0
2017-08-29T03:42:14.488Z,0
2017-08-29T03:43:15.879Z,0
2017-08-29T03:44:17.277Z,0
2017-08-29T03:45:18.672Z,0
2017-08-29T03:46:20.066Z,0
2017-08-29T03:47:21.457Z,0
2017-08-29T03:48:22.852Z,0
2017-08-29T03:49:24.245Z,0
2017-08-29T03:50:25.640Z,0
2017-08-29T03:51:27.062Z,0
2017-08-29T03:52:28.446Z,0
2017-08-29T03:53:29.838Z,0
2017-08-29T03:54:31.232Z,0
2017-08-29T03:55:32.626Z,0
2017-08-29T03:56:34.019Z,0
2017-08-29T03:57:35.416Z,0
2017-08-29T03:58:36.811Z,0
2017-08-29T03:59:38.205Z,0
2017-08-29T04:00:39.599Z,0
2017-08-29T04:01:40.990Z,0
2017-08-29T04:02:42.386Z,0
2017-08-29T04:03:43.777Z,0
2017-08-29T04:04:45.171Z,0
2017-08-29T04:05:46.565Z,0
2017-08-29T04:06:47.960Z,0
2017-08-29T04:07:49.353Z,0
2017-08-29T04:08:50.743Z,0
2017-08-29T04:09:52.136Z,0
2017-08-29T04:10:53.533Z,0
2017-08-29T04:11:54.923Z,0
2017-08-29T04:12:56.319Z,0
2017-08-29T04:13:57.714Z,0
2017-08-29T04:14:59.106Z,0
2017-08-29T04:16:00.499Z,0
2017-08-29T04:17:01.891Z,0
2017-08-29T04:18:03.285Z,0
2017-08-29T04:19:04.678Z,0
2017-08-29T04:20:06.071Z,0
2017-08-29T04:21:07.465Z,0
2017-08-29T04:22:08.857Z,0
2017-08-29T04:23:10.252Z,0
2017-08-29T04:24:11.644Z,0
2017-08-29T04:25:13.047Z,0
2017-08-29T04:26:14.430Z,0
2017-08-29T04:27:15.824Z,0
2017-08-29T04:28:17.224Z,0
2017-08-29T04:29:18.617Z,0
2017-08-29T04:30:20.008Z,0
2017-08-29T04:31:21.406Z,0
2017-08-29T04:32:22.798Z,0
2017-08-29T04:33:24.194Z,0
2017-08-29T04:34:25.586Z,0
2017-08-29T04:35:26.983Z,0
2017-08-29T04:36:28.377Z,0
2017-08-29T04:37:29.774Z,0
2017-08-29T04:38:31.167Z,0
2017-08-29T04:39:32.569Z,0
2017-08-29T04:40:33.962Z,0
2017-08-29T04:41:35.393Z,0
2017-08-29T04:42:36.760Z,0
2017-08-29T04:43:38.154Z,0
2017-08-29T04:44:39.549Z,0
2017-08-29T04:45:40.943Z,0
2017-08-29T04:46:42.338Z,0
2017-08-29T04:47:43.734Z,5
2017-08-29T04:48:45.130Z,5
2017-08-29T04:49:46.525Z,5
2017-08-29T04:50:47.922Z,5
2017-08-29T04:51:49.317Z,5
2017-08-29T04:52:50.711Z,5
2017-08-29T04:53:52.106Z,5
2017-08-29T04:54:53.502Z,5
2017-08-29T04:55:54.898Z,5
2017-08-29T04:56:56.296Z,5
2017-08-29T04:57:57.691Z,5
2017-08-29T04:58:59.085Z,11
2017-08-29T05:00:00.483Z,11
2017-08-29T05:01:01.880Z,11
2017-08-29T05:02:03.274Z,11
2017-08-29T05:03:04.672Z,11
2017-08-29T05:04:06.076Z,11
2017-08-29T05:05:07.476Z,11
2017-08-29T05:06:08.870Z,11
2017-08-29T05:07:10.260Z,11
2017-08-29T05:08:11.662Z,11
2017-08-29T05:09:13.057Z,16
2017-08-29T05:10:14.454Z,16
2017-08-29T05:11:15.853Z,16
2017-08-29T05:12:17.247Z,16
2017-08-29T05:13:18.643Z,16
2017-08-29T05:14:20.039Z,16
2017-08-29T05:15:21.434Z,16
2017-08-29T05:16:22.833Z,16
2017-08-29T05:17:24.231Z,16
2017-08-29T05:18:25.633Z,16
2017-08-29T05:19:27.025Z,16
2017-08-29T05:20:28.420Z,22
2017-08-29T05:21:29.819Z,22
2017-08-29T05:22:31.214Z,22
2017-08-29T05:23:32.613Z,22
2017-08-29T05:24:34.011Z,22
2017-08-29T05:25:35.428Z,22
2017-08-29T05:26:36.812Z,22
2017-08-29T05:27:38.207Z,22
2017-08-29T05:28:39.608Z,22
2017-08-29T05:29:41.006Z,22
2017-08-29T05:30:42.401Z,22
2017-08-29T05:31:43.797Z,22
2017-08-29T05:32:45.195Z,22
2017-08-29T05:33:46.588Z,28
2017-08-29T05:34:47.987Z,28
2017-08-29T05:35:49.382Z,28
2017-08-29T05:36:50.781Z,28
2017-08-29T05:37:52.177Z,28
2017-08-29T05:38:53.574Z,28
2017-08-29T05:39:54.971Z,28
2017-08-29T05:40:56.369Z,28
2017-08-29T05:41:57.763Z,28
2017-08-29T05:42:59.158Z,28
2017-08-29T05:44:00.558Z,33
2017-08-29T05:45:01.955Z,33
2017-08-29T05:46:03.351Z,33
2017-08-29T05:47:04.749Z,33
2017-08-29T05:48:06.143Z,33
2017-08-29T05:49:07.539Z,33
2017-08-29T05:50:08.936Z,33
2017-08-29T05:51:10.335Z,33
2017-08-29T05:52:11.731Z,33
2017-08-29T05:53:13.127Z,33
2017-08-29T05:54:14.527Z,33
2017-08-29T05:55:15.922Z,33
2017-08-29T05:56:17.317Z,33
2017-08-29T05:57:18.716Z,33
2017-08-29T05:58:20.114Z,39
2017-08-29T05:59:21.510Z,39
2017-08-29T06:00:22.907Z,39
2017-08-29T06:01:24.305Z,39
2017-08-29T06:02:25.699Z,39
2017-08-29T06:03:27.096Z,39
2017-08-29T06:04:28.494Z,39
2017-08-29T06:05:29.892Z,39
2017-08-29T06:06:31.290Z,39
2017-08-29T06:07:32.694Z,39
2017-08-29T06:08:34.089Z,39
2017-08-29T06:09:35.483Z,39
2017-08-29T06:10:36.890Z,39
2017-08-29T06:11:38.284Z,39
2017-08-29T06:12:39.680Z,45
2017-08-29T06:13:41.078Z,45
2017-08-29T06:14:42.480Z,45
2017-08-29T06:15:43.871Z,45
2017-08-29T06:16:45.270Z,45
2017-08-29T06:17:46.669Z,45
2017-08-29T06:18:48.065Z,45
2017-08-29T06:19:49.464Z,50
2017-08-29T06:20:50.861Z,50
2017-08-29T06:21:52.262Z,50
2017-08-29T06:22:53.662Z,50
2017-08-29T06:23:55.743Z,50
2017-08-29T06:24:57.145Z,50
2017-08-29T06:25:58.542Z,50
2017-08-29T06:26:59.942Z,50
2017-08-29T06:28:01.341Z,50
2017-08-29T06:29:02.743Z,50
2017-08-29T06:30:04.149Z,56
2017-08-29T06:31:05.540Z,56
2017-08-29T06:32:06.935Z,56
2017-08-29T06:33:08.342Z,56
2017-08-29T06:34:09.742Z,56
2017-08-29T06:35:11.140Z,56
2017-08-29T06:36:12.541Z,56
2017-08-29T06:37:13.948Z,56
2017-08-29T06:38:15.344Z,56
2017-08-29T06:39:16.741Z,56
2017-08-29T06:40:18.136Z,56
2017-08-29T06:41:19.538Z,61
2017-08-29T06:42:20.938Z,61
2017-08-29T06:43:22.338Z,61
2017-08-29T06:44:23.745Z,61
2017-08-29T06:45:25.141Z,61
2017-08-29T06:46:26.536Z,61
2017-08-29T06:47:27.940Z,61
2017-08-29T06:48:29.338Z,61
2017-08-29T06:49:30.738Z,61
2017-08-29T06:50:32.138Z,61
2017-08-29T06:51:33.537Z,61
2017-08-29T06:52:35.053Z,61
2017-08-29T06:53:36.498Z,61
2017-08-29T06:54:37.893Z,61
2017-08-29T06:55:39.293Z,67
2017-08-29T06:56:40.689Z,67
2017-08-29T06:57:42.087Z,67
2017-08-29T06:58:43.487Z,67
2017-08-29T06:59:44.885Z,67
2017-08-29T07:00:46.287Z,67
2017-08-29T07:01:47.679Z,67
2017-08-29T07:02:49.082Z,67
2017-08-29T07:03:50.480Z,67
2017-08-29T07:04:51.883Z,67
2017-08-29T07:09:52.105Z,73
2017-08-29T07:10:53.496Z,73
2017-08-29T07:12:16.019Z,73
2017-08-29T07:13:17.416Z,73
2017-08-29T07:14:39.393Z,73
2017-08-29T07:15:40.801Z,78
2017-08-29T07:17:03.285Z,78
2017-08-29T07:18:04.681Z,78
2017-08-29T07:19:26.181Z,78
2017-08-29T07:20:27.576Z,78
2017-08-29T07:21:49.099Z,78
2017-08-29T07:22:50.884Z,78
2017-08-29T07:24:13.328Z,78
2017-08-29T07:25:14.723Z,78
2017-08-29T07:26:37.230Z,84
2017-08-29T07:27:38.622Z,84
2017-08-29T07:29:00.124Z,84
2017-08-29T07:30:01.521Z,84
2017-08-29T07:31:23.082Z,84
2017-08-29T07:32:24.476Z,84
2017-08-29T07:33:45.989Z,90
2017-08-29T07:34:47.383Z,90
2017-08-29T07:36:09.894Z,90
2017-08-29T07:37:11.290Z,90
2017-08-29T07:38:33.778Z,90
2017-08-29T07:39:35.174Z,90
2017-08-29T07:40:57.698Z,90
2017-08-29T07:41:59.091Z,95
2017-08-29T07:43:20.592Z,95
2017-08-29T07:44:21.988Z,95
2017-08-29T07:45:44.496Z,95
2017-08-29T07:46:45.872Z,95
2017-08-29T07:48:07.396Z,95
2017-08-29T07:49:08.791Z,101
2017-08-29T07:50:30.293Z,101
2017-08-29T07:51:31.690Z,101
2017-08-29T07:52:53.216Z,101
2017-08-29T07:53:54.611Z,101
2017-08-29T07:55:17.102Z,101
2017-08-29T07:56:18.498Z,101
2017-08-29T07:57:41.014Z,106
2017-08-29T07:58:42.411Z,106
2017-08-29T08:00:04.900Z,106
2017-08-29T08:01:06.297Z,118
2017-08-29T08:02:28.820Z,112
2017-08-29T08:03:30.221Z,112
2017-08-29T08:04:52.707Z,118
2017-08-29T08:05:54.104Z,118
2017-08-29T08:07:15.632Z,123
2017-08-29T08:08:17.026Z,123
2017-08-29T08:09:38.538Z,123
2017-08-29T08:10:39.937Z,123
2017-08-29T08:12:01.484Z,129
2017-08-29T08:13:02.883Z,129
2017-08-29T08:14:24.387Z,129
2017-08-29T08:15:25.785Z,135
2017-08-29T08:16:47.293Z,135
2017-08-29T08:17:48.691Z,135
2017-08-29T08:19:10.215Z,135
2017-08-29T08:20:11.612Z,135
2017-08-29T08:21:33.115Z,129
2017-08-29T08:22:34.516Z,129
2017-08-29T08:23:56.039Z,151
2017-08-29T08:24:57.437Z,151
2017-08-29T08:26:19.924Z,157
2017-08-29T08:27:21.322Z,157
2017-08-29T08:28:42.845Z,163
2017-08-29T08:29:44.245Z,163
2017-08-29T08:31:06.738Z,163
2017-08-29T08:32:08.136Z,168
2017-08-29T08:33:29.665Z,168
2017-08-29T08:34:31.061Z,168
2017-08-29T08:35:52.565Z,163
2017-08-29T08:36:53.972Z,163
2017-08-29T08:38:15.498Z,168
2017-08-29T08:39:16.896Z,168
2017-08-29T08:40:38.402Z,168
2017-08-29T08:41:39.798Z,168
2017-08-29T08:43:02.315Z,168
2017-08-29T08:44:03.711Z,168
2017-08-29T08:45:26.206Z,174
2017-08-29T08:46:27.604Z,174
2017-08-29T08:47:50.096Z,180
2017-08-29T08:48:51.496Z,180
2017-08-29T08:50:14.009Z,180
2017-08-29T08:51:15.407Z,180
2017-08-29T08:52:37.416Z,185
2017-08-29T08:53:38.817Z,185
2017-08-29T08:55:00.343Z,185
2017-08-29T08:56:01.740Z,196
2017-08-29T08:57:24.241Z,196
2017-08-29T08:58:25.635Z,202
2017-08-29T08:59:47.154Z,208
2017-08-29T09:00:48.556Z,213
2017-08-29T09:02:10.066Z,219
2017-08-29T09:03:11.473Z,219
2017-08-29T09:04:32.996Z,225
2017-08-29T09:05:34.395Z,230
2017-08-29T09:06:55.899Z,225
2017-08-29T09:07:57.300Z,230
2017-08-29T09:09:19.810Z,230
2017-08-29T09:10:21.209Z,230
2017-08-29T09:11:43.700Z,230
2017-08-29T09:12:45.098Z,230
2017-08-29T09:14:06.606Z,230
2017-08-29T09:15:08.006Z,236
2017-08-29T09:16:30.523Z,241
2017-08-29T09:17:31.922Z,241
2017-08-29T09:18:53.426Z,247
2017-08-29T09:19:54.826Z,247
2017-08-29T09:21:17.346Z,247
2017-08-29T09:22:18.744Z,253
2017-08-29T09:23:40.246Z,253
2017-08-29T09:24:41.648Z,258
2017-08-29T09:26:03.179Z,258
2017-08-29T09:27:04.580Z,264
2017-08-29T09:28:27.072Z,270
2017-08-29T09:29:28.472Z,270
2017-08-29T09:30:50.987Z,270
2017-08-29T09:31:52.388Z,275
2017-08-29T09:33:14.889Z,275
2017-08-29T09:34:16.289Z,281
2017-08-29T09:35:37.820Z,286
2017-08-29T09:36:39.219Z,286
2017-08-29T09:38:00.728Z,292
2017-08-29T09:39:02.127Z,298
2017-08-29T09:40:24.658Z,303
2017-08-29T09:41:26.054Z,303
2017-08-29T09:42:47.560Z,309
2017-08-29T09:43:48.963Z,315
2017-08-29T09:45:10.470Z,320
2017-08-29T09:46:11.873Z,326
2017-08-29T09:47:33.403Z,326
2017-08-29T09:48:34.806Z,326
2017-08-29T09:49:56.311Z,337
2017-08-29T09:50:57.715Z,343
2017-08-29T09:52:19.257Z,343
2017-08-29T09:53:20.656Z,348
2017-08-29T09:54:42.160Z,360
2017-08-29T09:55:43.564Z,360
2017-08-29T09:57:06.077Z,365
2017-08-29T09:58:07.477Z,365
2017-08-29T09:59:28.983Z,371
2017-08-29T10:00:30.382Z,376
2017-08-29T10:01:52.905Z,388
2017-08-29T10:02:54.304Z,393
2017-08-29T10:04:16.803Z,399
2017-08-29T10:05:18.206Z,405
2017-08-29T10:06:40.728Z,410
2017-08-29T10:07:42.134Z,421
2017-08-29T10:09:03.641Z,427
2017-08-29T10:10:05.045Z,438
2017-08-29T10:11:26.581Z,444
2017-08-29T10:12:27.983Z,450
2017-08-29T10:13:49.491Z,450
2017-08-29T10:14:50.893Z,450
2017-08-29T10:16:12.401Z,461
2017-08-29T10:17:13.802Z,461
2017-08-29T10:18:35.335Z,472
2017-08-29T10:19:36.744Z,489
2017-08-29T10:20:59.238Z,495
2017-08-29T10:22:00.662Z,506
2017-08-29T10:23:22.205Z,528
2017-08-29T10:24:23.607Z,545
2017-08-29T10:25:46.105Z,556
2017-08-29T10:26:47.508Z,573
2017-08-29T10:28:09.043Z,590
2017-08-29T10:29:10.453Z,607
2017-08-29T10:30:32.948Z,630
2017-08-29T10:31:34.350Z,658
2017-08-29T10:32:55.883Z,663
2017-08-29T10:33:57.289Z,669
2017-08-29T10:35:19.796Z,714
2017-08-29T10:36:21.198Z,703
2017-08-29T10:37:43.700Z,731
2017-08-29T10:38:45.105Z,742
2017-08-29T10:40:06.639Z,798
2017-08-29T10:41:08.045Z,765
2017-08-29T10:42:29.555Z,838
2017-08-29T10:43:30.962Z,866
2017-08-29T10:44:53.490Z,883
2017-08-29T10:45:54.894Z,905
2017-08-29T10:47:16.405Z,945
2017-08-29T10:48:17.813Z,978
2017-08-29T10:49:39.367Z,1001
2017-08-29T10:50:40.776Z,1012
2017-08-29T10:52:02.298Z,1006
2017-08-29T10:53:03.699Z,1006
2017-08-29T10:54:25.275Z,1023
2017-08-29T10:55:26.678Z,1023
2017-08-29T10:56:48.191Z,1029
2017-08-29T10:57:49.601Z,1029
2017-08-29T10:59:11.115Z,1046
2017-08-29T11:00:12.528Z,1040
2017-08-29T11:01:34.064Z,1051
2017-08-29T11:02:35.472Z,1040
2017-08-29T11:03:57.008Z,1029
2017-08-29T11:04:58.420Z,1029
2017-08-29T11:06:23.956Z,1040
2017-08-29T11:07:25.362Z,1035
2017-08-29T11:08:26.770Z,1023
2017-08-29T11:09:28.179Z,1018
2017-08-29T11:10:29.592Z,1001
2017-08-29T11:11:31.000Z,995
2017-08-29T11:12:32.419Z,984
2017-08-29T11:13:33.864Z,1001
2017-08-29T11:14:35.260Z,1001
2017-08-29T11:15:36.673Z,1006
2017-08-29T11:16:38.117Z,984
2017-08-29T11:17:39.614Z,984
2017-08-29T11:18:41.207Z,990
2017-08-29T11:19:42.644Z,984
2017-08-29T11:20:44.149Z,973
2017-08-29T11:21:45.544Z,956
2017-08-29T11:22:46.951Z,961
2017-08-29T11:23:48.359Z,967
2017-08-29T11:24:49.766Z,961
2017-08-29T11:25:51.176Z,967
2017-08-29T11:26:52.589Z,973
2017-08-29T11:27:53.999Z,961
2017-08-29T11:28:55.410Z,939
2017-08-29T11:29:56.815Z,961
2017-08-29T11:30:58.221Z,973
2017-08-29T11:31:59.629Z,916
2017-08-29T11:33:01.036Z,933
2017-08-29T11:34:02.444Z,945
2017-08-29T11:35:03.854Z,916
2017-08-29T11:36:05.264Z,866
2017-08-29T11:37:06.729Z,888
2017-08-29T11:38:08.143Z,894
2017-08-29T11:39:09.552Z,905
2017-08-29T11:40:10.962Z,905
2017-08-29T11:41:12.371Z,928
2017-08-29T11:42:13.782Z,945
2017-08-29T11:43:15.190Z,939
2017-08-29T11:44:16.598Z,945
2017-08-29T11:45:18.005Z,933
2017-08-29T11:46:19.413Z,933
2017-08-29T11:47:20.830Z,933
2017-08-29T11:48:22.241Z,939
2017-08-29T11:49:23.654Z,945
2017-08-29T11:50:25.059Z,950
2017-08-29T11:51:26.469Z,956
2017-08-29T11:52:27.878Z,978
2017-08-29T11:53:29.288Z,967
2017-08-29T11:54:30.698Z,967
2017-08-29T11:55:32.108Z,945
2017-08-29T11:56:33.519Z,956
2017-08-29T11:57:34.927Z,956
2017-08-29T11:58:36.333Z,933
2017-08-29T11:59:37.748Z,922
2017-08-29T12:00:39.155Z,939
2017-08-29T12:01:40.565Z,928
2017-08-29T12:02:41.975Z,916
2017-08-29T12:03:43.384Z,922
2017-08-29T12:04:44.793Z,922
2017-08-29T12:05:46.207Z,916
2017-08-29T12:06:47.613Z,916
2017-08-29T12:07:49.023Z,911
2017-08-29T12:08:50.431Z,900
2017-08-29T12:09:51.843Z,877
2017-08-29T12:10:53.252Z,888
2017-08-29T12:11:54.661Z,888
2017-08-29T12:12:56.070Z,877
2017-08-29T12:13:57.477Z,866
2017-08-29T12:14:58.888Z,860
2017-08-29T12:16:00.298Z,866
2017-08-29T12:17:01.730Z,866
2017-08-29T12:18:03.117Z,860
2017-08-29T12:19:04.528Z,855
2017-08-29T12:20:05.938Z,860
2017-08-29T12:21:07.348Z,860
2017-08-29T12:22:08.761Z,855
2017-08-29T12:23:10.173Z,838
2017-08-29T12:24:11.584Z,798
2017-08-29T12:25:12.996Z,815
2017-08-29T12:26:14.403Z,821
2017-08-29T12:27:15.832Z,815
2017-08-29T12:28:17.241Z,804
2017-08-29T12:29:18.651Z,815
2017-08-29T12:30:20.060Z,787
2017-08-29T12:31:21.472Z,781
2017-08-29T12:32:22.881Z,793
2017-08-29T12:33:24.287Z,787
2017-08-29T12:34:25.697Z,787
2017-08-29T12:35:27.105Z,793
2017-08-29T12:36:28.517Z,793
2017-08-29T12:37:29.926Z,798
2017-08-29T12:38:31.336Z,798
2017-08-29T12:39:32.753Z,804
2017-08-29T12:40:34.168Z,787
2017-08-29T12:41:35.579Z,770
2017-08-29T12:42:36.992Z,770
2017-08-29T12:43:38.400Z,765
2017-08-29T12:44:39.828Z,765
2017-08-29T12:45:41.218Z,770
2017-08-29T12:46:42.630Z,770
2017-08-29T12:47:44.038Z,770
2017-08-29T12:48:45.446Z,759
2017-08-29T12:49:46.856Z,759
2017-08-29T12:50:48.267Z,748
2017-08-29T12:51:49.676Z,748
2017-08-29T12:52:51.095Z,742
2017-08-29T12:53:52.500Z,742
2017-08-29T12:54:53.908Z,742
2017-08-29T12:55:55.317Z,736
2017-08-29T12:56:56.726Z,720
2017-08-29T12:57:58.138Z,725
2017-08-29T12:58:59.544Z,714
2017-08-29T13:00:00.954Z,708
2017-08-29T13:01:02.366Z,720
2017-08-29T13:02:03.773Z,720
2017-08-29T13:03:05.179Z,714
2017-08-29T13:04:06.593Z,703
2017-08-29T13:05:08.002Z,703
2017-08-29T13:06:09.411Z,703
2017-08-29T13:07:10.822Z,697
2017-08-29T13:08:12.235Z,691
2017-08-29T13:09:13.641Z,697
2017-08-29T13:10:15.046Z,703
2017-08-29T13:11:16.457Z,697
2017-08-29T13:12:17.866Z,686
2017-08-29T13:13:19.276Z,686
2017-08-29T13:14:20.689Z,669
2017-08-29T13:15:22.101Z,658
2017-08-29T13:16:23.512Z,669
2017-08-29T13:17:24.919Z,663
2017-08-29T13:18:26.331Z,663
2017-08-29T13:19:27.742Z,658
2017-08-29T13:20:29.150Z,646
2017-08-29T13:21:30.560Z,652
2017-08-29T13:22:32.000Z,613
2017-08-29T13:23:33.404Z,292
2017-08-29T13:24:34.812Z,365
2017-08-29T13:25:36.223Z,635
2017-08-29T13:26:37.637Z,646
2017-08-29T13:27:39.046Z,641
2017-08-29T13:28:40.455Z,635
2017-08-29T13:29:41.866Z,635
2017-08-29T13:30:43.280Z,630
2017-08-29T13:31:44.682Z,630
2017-08-29T13:32:46.090Z,630
2017-08-29T13:33:47.501Z,630
2017-08-29T13:34:48.906Z,624
2017-08-29T13:35:50.320Z,624
2017-08-29T13:36:51.729Z,607
2017-08-29T13:37:53.137Z,601
2017-08-29T13:38:54.545Z,585
2017-08-29T13:39:55.955Z,585
2017-08-29T13:40:57.367Z,573
2017-08-29T13:41:58.777Z,573
2017-08-29T13:43:00.189Z,590
2017-08-29T13:44:01.596Z,219
2017-08-29T13:45:03.005Z,433
2017-08-29T13:46:04.414Z,613
2017-08-29T13:47:05.820Z,613
2017-08-29T13:48:07.228Z,613
2017-08-29T13:49:08.671Z,624
2017-08-29T13:50:10.080Z,613
2017-08-29T13:51:11.487Z,618
2017-08-29T13:52:12.902Z,601
2017-08-29T13:53:14.307Z,613
2017-08-29T13:54:15.716Z,601
2017-08-29T13:55:17.124Z,585
2017-08-29T13:56:18.535Z,568
2017-08-29T13:57:19.944Z,545
2017-08-29T13:58:21.356Z,551
2017-08-29T13:59:22.764Z,551
2017-08-29T14:00:24.172Z,556
2017-08-29T14:01:25.580Z,556
2017-08-29T14:02:26.992Z,551
2017-08-29T14:03:28.410Z,545
2017-08-29T14:04:29.814Z,545
2017-08-29T14:05:31.221Z,545
2017-08-29T14:06:32.661Z,551
2017-08-29T14:07:34.103Z,556
2017-08-29T14:08:35.510Z,545
2017-08-29T14:09:36.918Z,545
2017-08-29T14:10:38.327Z,540
2017-08-29T14:11:39.759Z,534
2017-08-29T14:12:41.166Z,528
2017-08-29T14:13:42.582Z,528
2017-08-29T14:14:43.990Z,528
2017-08-29T14:15:45.399Z,523
2017-08-29T14:16:46.817Z,523
2017-08-29T14:17:48.224Z,523
2017-08-29T14:18:49.634Z,517
2017-08-29T14:19:51.044Z,511
2017-08-29T14:20:52.701Z,511
2017-08-29T14:21:54.104Z,511
2017-08-29T14:22:55.516Z,511
2017-08-29T14:23:56.923Z,500
2017-08-29T14:24:58.331Z,500
2017-08-29T14:25:59.743Z,489
2017-08-29T14:27:01.153Z,483
2017-08-29T14:28:02.558Z,489
2017-08-29T14:29:03.968Z,489
2017-08-29T14:30:05.377Z,483
2017-08-29T14:31:06.783Z,478
2017-08-29T14:32:08.193Z,478
2017-08-29T14:33:09.602Z,478
2017-08-29T14:34:11.013Z,472
2017-08-29T14:35:12.433Z,472
2017-08-29T14:36:13.826Z,455
2017-08-29T14:37:15.232Z,393
2017-08-29T14:38:16.639Z,416
2017-08-29T14:39:18.046Z,427
2017-08-29T14:40:19.456Z,140
2017-08-29T14:41:20.862Z,140
2017-08-29T14:42:22.267Z,331
2017-08-29T14:43:23.682Z,438
2017-08-29T14:44:25.100Z,168
2017-08-29T14:45:26.505Z,185
2017-08-29T14:46:27.915Z,354
2017-08-29T14:47:29.321Z,241
2017-08-29T14:48:30.728Z,236
2017-08-29T14:49:32.136Z,309
2017-08-29T14:50:33.542Z,438
2017-08-29T14:51:34.950Z,433
2017-08-29T14:52:36.360Z,444
2017-08-29T14:53:37.769Z,444
2017-08-29T14:54:39.174Z,444
2017-08-29T14:55:40.582Z,450
2017-08-29T14:56:41.995Z,444
2017-08-29T14:57:43.395Z,444
2017-08-29T14:58:44.802Z,444
2017-08-29T14:59:46.209Z,438
2017-08-29T15:00:47.618Z,433
2017-08-29T15:01:49.026Z,433
2017-08-29T15:02:50.437Z,427
2017-08-29T15:03:51.841Z,427
2017-08-29T15:04:53.250Z,427
2017-08-29T15:05:54.653Z,416
2017-08-29T15:06:56.059Z,416
2017-08-29T15:07:57.465Z,405